sensor_id;sensor_type;location;lat;lon;timestamp;P1;durP1;ratioP1;P2;durP2;ratioP2
18499;SDS011;9379;52.134;11.576;2024-01-15T00:02:25;8.68;;;7.82;;
18499;SDS011;9379;52.134;11.576;2024-01-15T00:04:52;7.82;;;7.03;;
18499;SDS011;9379;52.134;11.576;2024-01-15T00:07:19;7.13;;;6.53;;
18499;SDS011;9379;52.134;11.576;2024-01-15T00:09:46;9.07;;;7.60;;
18499;SDS011;9379;52.134;11.576;2024-01-15T00:12:14;7.05;;;6.35;;
18499;SDS011;9379;52.134;11.576;2024-01-15T00:14:41;7.70;;;6.95;;
18499;SDS011;9379;52.134;11.576;2024-01-15T00:17:08;9.60;;;7.63;;
18499;SDS011;9379;52.134;11.576;2024-01-15T00:19:35;8.35;;;7.50;;
18499;SDS011;9379;52.134;11.576;2024-01-15T00:22:02;10.40;;;6.68;;
18499;SDS011;9379;52.134;11.576;2024-01-15T00:34:31;7.25;;;6.65;;
18499;SDS011;9379;52.134;11.576;2024-01-15T00:36:58;8.27;;;7.50;;
18499;SDS011;9379;52.134;11.576;2024-01-15T00:39:25;6.95;;;6.38;;
18499;SDS011;9379;52.134;11.576;2024-01-15T00:41:52;6.40;;;5.80;;
18499;SDS011;9379;52.134;11.576;2024-01-15T00:44:19;9.90;;;6.88;;
18499;SDS011;9379;52.134;11.576;2024-01-15T00:46:46;10.15;;;6.13;;
18499;SDS011;9379;52.134;11.576;2024-01-15T00:49:13;8.80;;;7.43;;
18499;SDS011;9379;52.134;11.576;2024-01-15T00:51:41;9.65;;;7.47;;
18499;SDS011;9379;52.134;11.576;2024-01-15T00:54:08;8.73;;;7.85;;
18499;SDS011;9379;52.134;11.576;2024-01-15T00:56:36;8.13;;;7.22;;
18499;SDS011;9379;52.134;11.576;2024-01-15T00:59:03;7.88;;;6.85;;
18499;SDS011;9379;52.134;11.576;2024-01-15T01:01:30;7.93;;;6.57;;
18499;SDS011;9379;52.134;11.576;2024-01-15T01:03:57;5.57;;;5.07;;
18499;SDS011;9379;52.134;11.576;2024-01-15T01:06:25;8.27;;;6.88;;
18499;SDS011;9379;52.134;11.576;2024-01-15T01:08:53;8.65;;;6.43;;
18499;SDS011;9379;52.134;11.576;2024-01-15T01:11:20;7.70;;;6.93;;
18499;SDS011;9379;52.134;11.576;2024-01-15T01:13:47;7.53;;;6.45;;
18499;SDS011;9379;52.134;11.576;2024-01-15T01:16:14;7.20;;;6.50;;
18499;SDS011;9379;52.134;11.576;2024-01-15T01:18:41;7.70;;;6.90;;
18499;SDS011;9379;52.134;11.576;2024-01-15T01:21:08;7.85;;;7.10;;
18499;SDS011;9379;52.134;11.576;2024-01-15T01:23:35;8.13;;;6.57;;
18499;SDS011;9379;52.134;11.576;2024-01-15T01:26:03;7.72;;;6.93;;
18499;SDS011;9379;52.134;11.576;2024-01-15T01:28:35;8.18;;;7.00;;
18499;SDS011;9379;52.134;11.576;2024-01-15T01:31:02;8.23;;;7.15;;
18499;SDS011;9379;52.134;11.576;2024-01-15T01:33:29;7.60;;;6.85;;
18499;SDS011;9379;52.134;11.576;2024-01-15T01:35:56;10.85;;;7.20;;
18499;SDS011;9379;52.134;11.576;2024-01-15T01:38:23;9.98;;;7.38;;
18499;SDS011;9379;52.134;11.576;2024-01-15T01:40:50;7.13;;;6.40;;
18499;SDS011;9379;52.134;11.576;2024-01-15T01:43:18;7.00;;;6.30;;
18499;SDS011;9379;52.134;11.576;2024-01-15T01:45:45;7.03;;;6.45;;
18499;SDS011;9379;52.134;11.576;2024-01-15T01:48:12;6.60;;;6.00;;
18499;SDS011;9379;52.134;11.576;2024-01-15T01:50:39;5.25;;;4.75;;
18499;SDS011;9379;52.134;11.576;2024-01-15T01:53:06;7.80;;;6.03;;
18499;SDS011;9379;52.134;11.576;2024-01-15T01:55:35;7.20;;;6.55;;
18499;SDS011;9379;52.134;11.576;2024-01-15T01:58:03;6.60;;;5.68;;
18499;SDS011;9379;52.134;11.576;2024-01-15T02:00:32;9.82;;;5.00;;
18499;SDS011;9379;52.134;11.576;2024-01-15T02:03:01;8.75;;;6.75;;
18499;SDS011;9379;52.134;11.576;2024-01-15T02:05:29;7.45;;;6.68;;
18499;SDS011;9379;52.134;11.576;2024-01-15T02:07:57;7.60;;;6.75;;
18499;SDS011;9379;52.134;11.576;2024-01-15T02:10:24;7.28;;;5.53;;
18499;SDS011;9379;52.134;11.576;2024-01-15T02:12:51;4.65;;;4.15;;
18499;SDS011;9379;52.134;11.576;2024-01-15T02:15:17;10.10;;;6.03;;
18499;SDS011;9379;52.134;11.576;2024-01-15T02:17:58;6.18;;;5.40;;
18499;SDS011;9379;52.134;11.576;2024-01-15T02:20:26;6.93;;;5.38;;
18499;SDS011;9379;52.134;11.576;2024-01-15T02:22:53;8.63;;;5.55;;
18499;SDS011;9379;52.134;11.576;2024-01-15T02:25:21;9.88;;;5.93;;
18499;SDS011;9379;52.134;11.576;2024-01-15T02:27:48;6.20;;;4.97;;
18499;SDS011;9379;52.134;11.576;2024-01-15T02:30:15;6.60;;;5.85;;
18499;SDS011;9379;52.134;11.576;2024-01-15T02:32:42;7.07;;;4.95;;
18499;SDS011;9379;52.134;11.576;2024-01-15T02:35:09;5.82;;;5.32;;
18499;SDS011;9379;52.134;11.576;2024-01-15T02:37:36;6.57;;;4.60;;
18499;SDS011;9379;52.134;11.576;2024-01-15T02:40:03;4.28;;;3.88;;
18499;SDS011;9379;52.134;11.576;2024-01-15T02:42:31;4.65;;;4.28;;
18499;SDS011;9379;52.134;11.576;2024-01-15T02:44:58;3.90;;;3.60;;
18499;SDS011;9379;52.134;11.576;2024-01-15T02:47:25;5.55;;;4.28;;
18499;SDS011;9379;52.134;11.576;2024-01-15T02:49:52;3.80;;;3.50;;
18499;SDS011;9379;52.134;11.576;2024-01-15T02:52:19;4.93;;;4.25;;
18499;SDS011;9379;52.134;11.576;2024-01-15T02:54:46;4.38;;;4.05;;
18499;SDS011;9379;52.134;11.576;2024-01-15T02:57:12;5.10;;;4.53;;
18499;SDS011;9379;52.134;11.576;2024-01-15T02:59:41;7.05;;;4.38;;
18499;SDS011;9379;52.134;11.576;2024-01-15T03:02:07;10.02;;;5.45;;
18499;SDS011;9379;52.134;11.576;2024-01-15T03:04:34;4.03;;;3.72;;
18499;SDS011;9379;52.134;11.576;2024-01-15T03:07:01;6.25;;;5.03;;
18499;SDS011;9379;52.134;11.576;2024-01-15T03:09:28;4.93;;;4.50;;
18499;SDS011;9379;52.134;11.576;2024-01-15T03:11:55;7.10;;;3.63;;
18499;SDS011;9379;52.134;11.576;2024-01-15T03:14:22;5.97;;;3.90;;
18499;SDS011;9379;52.134;11.576;2024-01-15T03:16:52;7.55;;;3.83;;
18499;SDS011;9379;52.134;11.576;2024-01-15T03:19:19;5.93;;;4.45;;
18499;SDS011;9379;52.134;11.576;2024-01-15T03:21:46;9.32;;;3.97;;
18499;SDS011;9379;52.134;11.576;2024-01-15T03:24:12;4.30;;;3.50;;
18499;SDS011;9379;52.134;11.576;2024-01-15T03:26:40;4.53;;;3.17;;
18499;SDS011;9379;52.134;11.576;2024-01-15T03:29:07;3.20;;;3.00;;
18499;SDS011;9379;52.134;11.576;2024-01-15T03:31:34;5.85;;;3.88;;
18499;SDS011;9379;52.134;11.576;2024-01-15T03:34:02;5.63;;;2.85;;
18499;SDS011;9379;52.134;11.576;2024-01-15T03:36:29;3.72;;;3.40;;
18499;SDS011;9379;52.134;11.576;2024-01-15T03:38:56;3.22;;;2.92;;
18499;SDS011;9379;52.134;11.576;2024-01-15T03:41:23;5.78;;;2.90;;
18499;SDS011;9379;52.134;11.576;2024-01-15T03:43:50;3.38;;;2.85;;
18499;SDS011;9379;52.134;11.576;2024-01-15T03:46:16;4.40;;;2.97;;
18499;SDS011;9379;52.134;11.576;2024-01-15T03:48:43;4.15;;;3.22;;
18499;SDS011;9379;52.134;11.576;2024-01-15T03:51:12;3.60;;;2.80;;
18499;SDS011;9379;52.134;11.576;2024-01-15T03:53:38;6.32;;;3.63;;
18499;SDS011;9379;52.134;11.576;2024-01-15T03:56:05;5.28;;;3.13;;
18499;SDS011;9379;52.134;11.576;2024-01-15T03:58:32;4.35;;;2.80;;
18499;SDS011;9379;52.134;11.576;2024-01-15T04:00:59;5.88;;;2.42;;
18499;SDS011;9379;52.134;11.576;2024-01-15T04:03:26;5.47;;;3.83;;
18499;SDS011;9379;52.134;11.576;2024-01-15T04:05:53;6.20;;;2.95;;
18499;SDS011;9379;52.134;11.576;2024-01-15T04:08:21;3.20;;;2.40;;
18499;SDS011;9379;52.134;11.576;2024-01-15T04:10:48;11.25;;;3.15;;
18499;SDS011;9379;52.134;11.576;2024-01-15T04:13:15;6.75;;;2.50;;
18499;SDS011;9379;52.134;11.576;2024-01-15T04:15:42;2.50;;;2.28;;
18499;SDS011;9379;52.134;11.576;2024-01-15T04:18:09;3.63;;;2.42;;
18499;SDS011;9379;52.134;11.576;2024-01-15T04:20:35;3.20;;;2.97;;
18499;SDS011;9379;52.134;11.576;2024-01-15T04:23:03;9.23;;;2.92;;
18499;SDS011;9379;52.134;11.576;2024-01-15T04:25:32;4.65;;;2.45;;
18499;SDS011;9379;52.134;11.576;2024-01-15T04:27:59;4.05;;;2.55;;
18499;SDS011;9379;52.134;11.576;2024-01-15T04:30:25;3.05;;;2.35;;
18499;SDS011;9379;52.134;11.576;2024-01-15T04:32:52;5.18;;;2.38;;
18499;SDS011;9379;52.134;11.576;2024-01-15T04:35:19;3.30;;;2.95;;
18499;SDS011;9379;52.134;11.576;2024-01-15T04:37:46;2.42;;;1.92;;
18499;SDS011;9379;52.134;11.576;2024-01-15T04:40:13;4.00;;;3.55;;
18499;SDS011;9379;52.134;11.576;2024-01-15T04:42:41;3.50;;;3.20;;
18499;SDS011;9379;52.134;11.576;2024-01-15T04:45:10;2.55;;;2.35;;
18499;SDS011;9379;52.134;11.576;2024-01-15T04:47:37;3.60;;;2.17;;
18499;SDS011;9379;52.134;11.576;2024-01-15T04:50:05;5.15;;;2.38;;
18499;SDS011;9379;52.134;11.576;2024-01-15T04:52:32;2.88;;;2.67;;
18499;SDS011;9379;52.134;11.576;2024-01-15T04:54:59;2.47;;;2.20;;
18499;SDS011;9379;52.134;11.576;2024-01-15T04:57:26;4.22;;;2.65;;
18499;SDS011;9379;52.134;11.576;2024-01-15T04:59:54;4.53;;;3.40;;
18499;SDS011;9379;52.134;11.576;2024-01-15T05:02:21;3.28;;;2.70;;
18499;SDS011;9379;52.134;11.576;2024-01-15T05:04:48;5.97;;;2.72;;
18499;SDS011;9379;52.134;11.576;2024-01-15T05:07:16;4.32;;;2.53;;
18499;SDS011;9379;52.134;11.576;2024-01-15T05:09:43;3.45;;;2.63;;
18499;SDS011;9379;52.134;11.576;2024-01-15T05:12:10;3.50;;;2.45;;
18499;SDS011;9379;52.134;11.576;2024-01-15T05:14:37;6.35;;;3.38;;
18499;SDS011;9379;52.134;11.576;2024-01-15T05:17:05;3.38;;;2.75;;
18499;SDS011;9379;52.134;11.576;2024-01-15T05:19:32;8.60;;;3.33;;
18499;SDS011;9379;52.134;11.576;2024-01-15T05:21:59;5.70;;;2.67;;
18499;SDS011;9379;52.134;11.576;2024-01-15T05:24:25;2.90;;;2.47;;
18499;SDS011;9379;52.134;11.576;2024-01-15T05:26:52;4.03;;;2.97;;
18499;SDS011;9379;52.134;11.576;2024-01-15T05:29:19;2.20;;;2.03;;
18499;SDS011;9379;52.134;11.576;2024-01-15T05:31:46;6.78;;;2.90;;
18499;SDS011;9379;52.134;11.576;2024-01-15T05:34:14;2.65;;;2.45;;
18499;SDS011;9379;52.134;11.576;2024-01-15T05:36:41;2.05;;;1.90;;
18499;SDS011;9379;52.134;11.576;2024-01-15T05:39:08;6.85;;;3.15;;
18499;SDS011;9379;52.134;11.576;2024-01-15T05:41:35;7.70;;;2.67;;
18499;SDS011;9379;52.134;11.576;2024-01-15T05:44:02;9.55;;;4.82;;
18499;SDS011;9379;52.134;11.576;2024-01-15T05:46:29;4.57;;;4.18;;
18499;SDS011;9379;52.134;11.576;2024-01-15T05:48:56;6.72;;;3.20;;
18499;SDS011;9379;52.134;11.576;2024-01-15T05:51:26;5.05;;;2.30;;
18499;SDS011;9379;52.134;11.576;2024-01-15T05:53:53;2.78;;;2.58;;
18499;SDS011;9379;52.134;11.576;2024-01-15T05:56:20;7.03;;;4.10;;
18499;SDS011;9379;52.134;11.576;2024-01-15T05:58:46;4.22;;;2.40;;
18499;SDS011;9379;52.134;11.576;2024-01-15T06:01:13;5.97;;;3.60;;
18499;SDS011;9379;52.134;11.576;2024-01-15T06:03:40;5.20;;;3.38;;
18499;SDS011;9379;52.134;11.576;2024-01-15T06:06:08;4.63;;;2.13;;
18499;SDS011;9379;52.134;11.576;2024-01-15T06:08:37;2.45;;;2.10;;
18499;SDS011;9379;52.134;11.576;2024-01-15T06:11:04;4.65;;;2.70;;
18499;SDS011;9379;52.134;11.576;2024-01-15T06:13:31;7.53;;;3.50;;
18499;SDS011;9379;52.134;11.576;2024-01-15T06:15:58;6.82;;;3.13;;
18499;SDS011;9379;52.134;11.576;2024-01-15T06:18:26;5.88;;;2.30;;
18499;SDS011;9379;52.134;11.576;2024-01-15T06:20:53;8.77;;;3.25;;
18499;SDS011;9379;52.134;11.576;2024-01-15T06:23:20;4.07;;;2.83;;
18499;SDS011;9379;52.134;11.576;2024-01-15T06:25:48;5.90;;;2.78;;
18499;SDS011;9379;52.134;11.576;2024-01-15T06:34:27;2.40;;;2.20;;
18499;SDS011;9379;52.134;11.576;2024-01-15T06:36:53;1.92;;;1.83;;
18499;SDS011;9379;52.134;11.576;2024-01-15T06:39:20;2.15;;;1.95;;
18499;SDS011;9379;52.134;11.576;2024-01-15T06:41:49;6.63;;;2.67;;
18499;SDS011;9379;52.134;11.576;2024-01-15T06:44:15;2.40;;;2.20;;
18499;SDS011;9379;52.134;11.576;2024-01-15T06:46:42;3.42;;;2.65;;
18499;SDS011;9379;52.134;11.576;2024-01-15T06:49:09;3.60;;;2.92;;
18499;SDS011;9379;52.134;11.576;2024-01-15T06:51:36;2.75;;;2.05;;
18499;SDS011;9379;52.134;11.576;2024-01-15T06:54:04;3.25;;;2.10;;
18499;SDS011;9379;52.134;11.576;2024-01-15T06:56:31;8.23;;;4.00;;
18499;SDS011;9379;52.134;11.576;2024-01-15T06:58:59;4.80;;;2.25;;
18499;SDS011;9379;52.134;11.576;2024-01-15T07:01:26;13.48;;;2.40;;
18499;SDS011;9379;52.134;11.576;2024-01-15T07:03:53;3.25;;;2.40;;
18499;SDS011;9379;52.134;11.576;2024-01-15T07:06:20;2.92;;;2.45;;
18499;SDS011;9379;52.134;11.576;2024-01-15T07:08:47;4.57;;;2.65;;
18499;SDS011;9379;52.134;11.576;2024-01-15T07:11:14;3.58;;;2.58;;
18499;SDS011;9379;52.134;11.576;2024-01-15T07:13:41;2.80;;;2.60;;
18499;SDS011;9379;52.134;11.576;2024-01-15T07:16:09;3.95;;;2.50;;
18499;SDS011;9379;52.134;11.576;2024-01-15T07:18:36;3.45;;;3.05;;
18499;SDS011;9379;52.134;11.576;2024-01-15T07:21:03;2.78;;;2.42;;
18499;SDS011;9379;52.134;11.576;2024-01-15T07:23:30;2.83;;;2.63;;
18499;SDS011;9379;52.134;11.576;2024-01-15T07:25:57;3.40;;;2.13;;
18499;SDS011;9379;52.134;11.576;2024-01-15T07:28:24;4.20;;;2.50;;
18499;SDS011;9379;52.134;11.576;2024-01-15T07:30:51;5.47;;;2.53;;
18499;SDS011;9379;52.134;11.576;2024-01-15T07:33:20;1.77;;;1.67;;
18499;SDS011;9379;52.134;11.576;2024-01-15T07:35:46;3.78;;;2.58;;
18499;SDS011;9379;52.134;11.576;2024-01-15T07:38:13;3.47;;;3.13;;
18499;SDS011;9379;52.134;11.576;2024-01-15T07:40:40;7.18;;;3.55;;
18499;SDS011;9379;52.134;11.576;2024-01-15T07:43:07;5.80;;;3.03;;
18499;SDS011;9379;52.134;11.576;2024-01-15T07:45:34;2.72;;;2.53;;
18499;SDS011;9379;52.134;11.576;2024-01-15T07:48:01;3.05;;;2.70;;
18499;SDS011;9379;52.134;11.576;2024-01-15T07:50:30;2.80;;;2.65;;
18499;SDS011;9379;52.134;11.576;2024-01-15T07:52:57;5.50;;;2.72;;
18499;SDS011;9379;52.134;11.576;2024-01-15T07:55:24;2.22;;;2.13;;
18499;SDS011;9379;52.134;11.576;2024-01-15T07:57:51;3.50;;;2.97;;
18499;SDS011;9379;52.134;11.576;2024-01-15T08:00:18;6.80;;;3.13;;
18499;SDS011;9379;52.134;11.576;2024-01-15T08:02:46;5.25;;;3.33;;
18499;SDS011;9379;52.134;11.576;2024-01-15T08:05:13;6.85;;;2.38;;
18499;SDS011;9379;52.134;11.576;2024-01-15T08:07:41;3.92;;;3.63;;
18499;SDS011;9379;52.134;11.576;2024-01-15T08:10:08;3.85;;;3.55;;
18499;SDS011;9379;52.134;11.576;2024-01-15T08:12:35;5.30;;;2.88;;
18499;SDS011;9379;52.134;11.576;2024-01-15T08:15:02;4.30;;;3.17;;
18499;SDS011;9379;52.134;11.576;2024-01-15T08:17:30;2.08;;;1.80;;
18499;SDS011;9379;52.134;11.576;2024-01-15T08:19:57;5.18;;;3.83;;
18499;SDS011;9379;52.134;11.576;2024-01-15T08:22:24;3.15;;;2.72;;
18499;SDS011;9379;52.134;11.576;2024-01-15T08:24:52;5.07;;;3.33;;
18499;SDS011;9379;52.134;11.576;2024-01-15T08:27:20;2.75;;;1.58;;
18499;SDS011;9379;52.134;11.576;2024-01-15T08:29:47;3.40;;;2.70;;
18499;SDS011;9379;52.134;11.576;2024-01-15T08:32:14;5.55;;;2.92;;
18499;SDS011;9379;52.134;11.576;2024-01-15T08:34:41;3.33;;;3.03;;
18499;SDS011;9379;52.134;11.576;2024-01-15T08:37:08;6.95;;;3.85;;
18499;SDS011;9379;52.134;11.576;2024-01-15T08:39:35;3.80;;;3.40;;
18499;SDS011;9379;52.134;11.576;2024-01-15T08:42:05;2.58;;;2.38;;
18499;SDS011;9379;52.134;11.576;2024-01-15T08:44:32;2.25;;;2.05;;
18499;SDS011;9379;52.134;11.576;2024-01-15T08:46:59;4.40;;;2.72;;
18499;SDS011;9379;52.134;11.576;2024-01-15T08:49:26;9.93;;;4.05;;
18499;SDS011;9379;52.134;11.576;2024-01-15T08:51:53;3.28;;;2.97;;
18499;SDS011;9379;52.134;11.576;2024-01-15T08:54:19;3.00;;;2.80;;
18499;SDS011;9379;52.134;11.576;2024-01-15T08:56:47;3.78;;;3.45;;
18499;SDS011;9379;52.134;11.576;2024-01-15T08:59:15;3.78;;;2.85;;
18499;SDS011;9379;52.134;11.576;2024-01-15T09:01:42;6.97;;;3.42;;
18499;SDS011;9379;52.134;11.576;2024-01-15T09:04:09;2.22;;;2.13;;
18499;SDS011;9379;52.134;11.576;2024-01-15T09:06:36;3.15;;;2.63;;
18499;SDS011;9379;52.134;11.576;2024-01-15T09:09:06;4.32;;;3.53;;
18499;SDS011;9379;52.134;11.576;2024-01-15T09:11:33;5.97;;;3.65;;
18499;SDS011;9379;52.134;11.576;2024-01-15T09:13:59;2.60;;;2.15;;
18499;SDS011;9379;52.134;11.576;2024-01-15T09:16:28;3.78;;;2.88;;
18499;SDS011;9379;52.134;11.576;2024-01-15T09:18:55;3.88;;;2.78;;
18499;SDS011;9379;52.134;11.576;2024-01-15T09:21:26;3.05;;;2.83;;
18499;SDS011;9379;52.134;11.576;2024-01-15T09:23:53;3.00;;;2.80;;
18499;SDS011;9379;52.134;11.576;2024-01-15T09:29:11;2.20;;;2.10;;
18499;SDS011;9379;52.134;11.576;2024-01-15T09:31:42;3.35;;;2.75;;
18499;SDS011;9379;52.134;11.576;2024-01-15T09:34:09;5.78;;;3.10;;
18499;SDS011;9379;52.134;11.576;2024-01-15T09:36:38;4.30;;;3.53;;
18499;SDS011;9379;52.134;11.576;2024-01-15T09:39:06;3.15;;;2.88;;
18499;SDS011;9379;52.134;11.576;2024-01-15T09:41:34;2.53;;;2.33;;
18499;SDS011;9379;52.134;11.576;2024-01-15T09:44:02;4.65;;;2.50;;
18499;SDS011;9379;52.134;11.576;2024-01-15T09:46:30;6.75;;;3.13;;
18499;SDS011;9379;52.134;11.576;2024-01-15T09:48:59;2.60;;;2.20;;
18499;SDS011;9379;52.134;11.576;2024-01-15T09:51:27;2.17;;;1.98;;
18499;SDS011;9379;52.134;11.576;2024-01-15T09:53:57;1.60;;;1.50;;
18499;SDS011;9379;52.134;11.576;2024-01-15T09:56:24;1.98;;;1.88;;
18499;SDS011;9379;52.134;11.576;2024-01-15T09:58:51;2.92;;;2.65;;
18499;SDS011;9379;52.134;11.576;2024-01-15T10:01:19;8.95;;;2.50;;
18499;SDS011;9379;52.134;11.576;2024-01-15T10:03:47;4.47;;;2.72;;
18499;SDS011;9379;52.134;11.576;2024-01-15T10:06:16;2.60;;;2.40;;
18499;SDS011;9379;52.134;11.576;2024-01-15T10:08:43;3.63;;;3.30;;
18499;SDS011;9379;52.134;11.576;2024-01-15T10:11:14;4.28;;;3.80;;
18499;SDS011;9379;52.134;11.576;2024-01-15T10:13:42;6.20;;;3.17;;
18499;SDS011;9379;52.134;11.576;2024-01-15T10:16:10;3.88;;;2.92;;
18499;SDS011;9379;52.134;11.576;2024-01-15T10:18:37;2.05;;;1.92;;
18499;SDS011;9379;52.134;11.576;2024-01-15T10:21:05;2.55;;;2.35;;
18499;SDS011;9379;52.134;11.576;2024-01-15T10:23:34;3.88;;;2.90;;
18499;SDS011;9379;52.134;11.576;2024-01-15T10:26:01;3.55;;;2.60;;
18499;SDS011;9379;52.134;11.576;2024-01-15T10:28:29;2.63;;;2.42;;
18499;SDS011;9379;52.134;11.576;2024-01-15T10:30:58;4.78;;;3.50;;
18499;SDS011;9379;52.134;11.576;2024-01-15T10:33:25;3.10;;;2.80;;
18499;SDS011;9379;52.134;11.576;2024-01-15T10:35:53;4.28;;;2.53;;
18499;SDS011;9379;52.134;11.576;2024-01-15T10:38:21;2.67;;;2.58;;
18499;SDS011;9379;52.134;11.576;2024-01-15T10:40:52;2.70;;;2.50;;
18499;SDS011;9379;52.134;11.576;2024-01-15T10:43:19;2.17;;;2.08;;
18499;SDS011;9379;52.134;11.576;2024-01-15T10:45:47;2.80;;;2.50;;
18499;SDS011;9379;52.134;11.576;2024-01-15T10:48:16;3.45;;;2.97;;
18499;SDS011;9379;52.134;11.576;2024-01-15T10:50:45;2.75;;;2.60;;
18499;SDS011;9379;52.134;11.576;2024-01-15T10:53:16;3.05;;;2.78;;
18499;SDS011;9379;52.134;11.576;2024-01-15T10:55:43;4.80;;;3.53;;
18499;SDS011;9379;52.134;11.576;2024-01-15T10:58:15;2.63;;;2.42;;
18499;SDS011;9379;52.134;11.576;2024-01-15T11:00:43;2.47;;;2.30;;
18499;SDS011;9379;52.134;11.576;2024-01-15T11:03:10;2.35;;;2.15;;
18499;SDS011;9379;52.134;11.576;2024-01-15T11:05:37;3.15;;;2.95;;
18499;SDS011;9379;52.134;11.576;2024-01-15T11:08:05;3.25;;;2.30;;
18499;SDS011;9379;52.134;11.576;2024-01-15T11:10:40;2.92;;;2.60;;
18499;SDS011;9379;52.134;11.576;2024-01-15T11:13:08;3.47;;;2.20;;
18499;SDS011;9379;52.134;11.576;2024-01-15T11:18:23;5.90;;;2.15;;
18499;SDS011;9379;52.134;11.576;2024-01-15T11:23:52;2.28;;;2.08;;
18499;SDS011;9379;52.134;11.576;2024-01-15T11:26:29;3.47;;;1.60;;
18499;SDS011;9379;52.134;11.576;2024-01-15T11:29:01;5.22;;;2.50;;
18499;SDS011;9379;52.134;11.576;2024-01-15T11:37:18;2.83;;;2.47;;
18499;SDS011;9379;52.134;11.576;2024-01-15T11:39:46;2.15;;;2.05;;
18499;SDS011;9379;52.134;11.576;2024-01-15T11:42:13;2.38;;;2.10;;
18499;SDS011;9379;52.134;11.576;2024-01-15T11:44:40;6.07;;;1.75;;
18499;SDS011;9379;52.134;11.576;2024-01-15T11:47:10;3.03;;;2.83;;
18499;SDS011;9379;52.134;11.576;2024-01-15T11:49:49;5.93;;;2.55;;
18499;SDS011;9379;52.134;11.576;2024-01-15T11:52:25;10.68;;;2.15;;
18499;SDS011;9379;52.134;11.576;2024-01-15T11:54:55;2.15;;;1.38;;
18499;SDS011;9379;52.134;11.576;2024-01-15T11:57:29;2.75;;;2.33;;
18499;SDS011;9379;52.134;11.576;2024-01-15T12:00:04;2.60;;;2.40;;
18499;SDS011;9379;52.134;11.576;2024-01-15T12:02:34;3.92;;;2.00;;
18499;SDS011;9379;52.134;11.576;2024-01-15T12:05:01;2.38;;;1.90;;
18499;SDS011;9379;52.134;11.576;2024-01-15T12:07:28;3.08;;;1.98;;
18499;SDS011;9379;52.134;11.576;2024-01-15T12:09:55;3.90;;;2.33;;
18499;SDS011;9379;52.134;11.576;2024-01-15T12:12:24;3.17;;;1.95;;
18499;SDS011;9379;52.134;11.576;2024-01-15T12:14:53;6.07;;;3.10;;
18499;SDS011;9379;52.134;11.576;2024-01-15T12:17:20;4.68;;;2.85;;
18499;SDS011;9379;52.134;11.576;2024-01-15T12:19:49;11.38;;;2.85;;
18499;SDS011;9379;52.134;11.576;2024-01-15T12:22:15;3.20;;;2.15;;
18499;SDS011;9379;52.134;11.576;2024-01-15T12:24:42;8.35;;;2.47;;
18499;SDS011;9379;52.134;11.576;2024-01-15T12:27:10;4.00;;;2.05;;
18499;SDS011;9379;52.134;11.576;2024-01-15T12:29:37;2.47;;;2.28;;
18499;SDS011;9379;52.134;11.576;2024-01-15T12:32:05;2.45;;;2.20;;
18499;SDS011;9379;52.134;11.576;2024-01-15T12:34:33;3.78;;;2.38;;
18499;SDS011;9379;52.134;11.576;2024-01-15T12:37:01;3.67;;;2.72;;
18499;SDS011;9379;52.134;11.576;2024-01-15T12:39:28;2.65;;;2.45;;
18499;SDS011;9379;52.134;11.576;2024-01-15T12:41:57;2.10;;;2.00;;
18499;SDS011;9379;52.134;11.576;2024-01-15T12:44:24;1.90;;;1.80;;
18499;SDS011;9379;52.134;11.576;2024-01-15T12:46:51;3.80;;;1.83;;
18499;SDS011;9379;52.134;11.576;2024-01-15T12:49:18;2.55;;;2.35;;
18499;SDS011;9379;52.134;11.576;2024-01-15T12:51:51;2.42;;;2.33;;
18499;SDS011;9379;52.134;11.576;2024-01-15T12:54:20;1.77;;;1.67;;
18499;SDS011;9379;52.134;11.576;2024-01-15T12:56:47;2.58;;;2.25;;
18499;SDS011;9379;52.134;11.576;2024-01-15T12:59:14;2.38;;;2.17;;
18499;SDS011;9379;52.134;11.576;2024-01-15T13:01:41;2.05;;;1.80;;
18499;SDS011;9379;52.134;11.576;2024-01-15T13:04:08;1.77;;;1.67;;
18499;SDS011;9379;52.134;11.576;2024-01-15T13:06:35;2.75;;;2.55;;
18499;SDS011;9379;52.134;11.576;2024-01-15T13:09:02;5.85;;;1.83;;
18499;SDS011;9379;52.134;11.576;2024-01-15T13:11:34;6.55;;;2.83;;
18499;SDS011;9379;52.134;11.576;2024-01-15T13:14:02;1.65;;;1.55;;
18499;SDS011;9379;52.134;11.576;2024-01-15T13:16:28;4.78;;;2.15;;
18499;SDS011;9379;52.134;11.576;2024-01-15T13:18:55;3.95;;;2.83;;
18499;SDS011;9379;52.134;11.576;2024-01-15T13:21:24;4.07;;;2.53;;
18499;SDS011;9379;52.134;11.576;2024-01-15T13:23:50;3.13;;;1.63;;
18499;SDS011;9379;52.134;11.576;2024-01-15T13:26:17;3.15;;;1.85;;
18499;SDS011;9379;52.134;11.576;2024-01-15T13:28:46;1.70;;;1.60;;
18499;SDS011;9379;52.134;11.576;2024-01-15T13:31:14;2.05;;;1.77;;
18499;SDS011;9379;52.134;11.576;2024-01-15T13:33:40;1.48;;;1.38;;
18499;SDS011;9379;52.134;11.576;2024-01-15T13:36:08;4.43;;;2.70;;
18499;SDS011;9379;52.134;11.576;2024-01-15T13:38:35;3.60;;;2.22;;
18499;SDS011;9379;52.134;11.576;2024-01-15T13:41:03;1.13;;;1.13;;
18499;SDS011;9379;52.134;11.576;2024-01-15T13:43:31;16.20;;;2.22;;
18499;SDS011;9379;52.134;11.576;2024-01-15T13:45:59;1.55;;;1.45;;
18499;SDS011;9379;52.134;11.576;2024-01-15T13:48:29;1.00;;;1.00;;
18499;SDS011;9379;52.134;11.576;2024-01-15T13:50:57;1.42;;;1.38;;
18499;SDS011;9379;52.134;11.576;2024-01-15T13:53:24;1.80;;;1.70;;
18499;SDS011;9379;52.134;11.576;2024-01-15T13:55:52;2.78;;;1.80;;
18499;SDS011;9379;52.134;11.576;2024-01-15T13:58:18;4.00;;;1.85;;
18499;SDS011;9379;52.134;11.576;2024-01-15T14:00:46;1.38;;;1.38;;
18499;SDS011;9379;52.134;11.576;2024-01-15T14:03:15;2.45;;;2.25;;
18499;SDS011;9379;52.134;11.576;2024-01-15T14:05:42;4.00;;;1.77;;
18499;SDS011;9379;52.134;11.576;2024-01-15T14:08:09;3.15;;;2.55;;
18499;SDS011;9379;52.134;11.576;2024-01-15T14:10:37;2.60;;;1.90;;
18499;SDS011;9379;52.134;11.576;2024-01-15T14:13:03;2.30;;;2.10;;
18499;SDS011;9379;52.134;11.576;2024-01-15T14:15:30;1.52;;;1.50;;
18499;SDS011;9379;52.134;11.576;2024-01-15T14:17:57;2.05;;;1.33;;
18499;SDS011;9379;52.134;11.576;2024-01-15T14:20:26;1.98;;;1.88;;
18499;SDS011;9379;52.134;11.576;2024-01-15T14:22:53;2.72;;;2.53;;
18499;SDS011;9379;52.134;11.576;2024-01-15T14:25:20;3.55;;;3.25;;
18499;SDS011;9379;52.134;11.576;2024-01-15T14:27:47;6.00;;;5.47;;
18499;SDS011;9379;52.134;11.576;2024-01-15T14:30:15;6.35;;;4.75;;
18499;SDS011;9379;52.134;11.576;2024-01-15T14:32:42;4.63;;;3.33;;
18499;SDS011;9379;52.134;11.576;2024-01-15T14:35:09;4.07;;;3.05;;
18499;SDS011;9379;52.134;11.576;2024-01-15T14:37:38;2.03;;;1.77;;
18499;SDS011;9379;52.134;11.576;2024-01-15T14:40:05;8.93;;;2.92;;
18499;SDS011;9379;52.134;11.576;2024-01-15T14:42:33;8.88;;;2.28;;
18499;SDS011;9379;52.134;11.576;2024-01-15T14:45:01;1.65;;;1.55;;
18499;SDS011;9379;52.134;11.576;2024-01-15T14:47:29;9.68;;;3.35;;
18499;SDS011;9379;52.134;11.576;2024-01-15T14:49:57;6.78;;;2.25;;
18499;SDS011;9379;52.134;11.576;2024-01-15T14:52:24;1.73;;;1.63;;
18499;SDS011;9379;52.134;11.576;2024-01-15T14:54:52;1.58;;;1.48;;
18499;SDS011;9379;52.134;11.576;2024-01-15T14:57:19;2.75;;;2.55;;
18499;SDS011;9379;52.134;11.576;2024-01-15T14:59:46;4.97;;;2.22;;
18499;SDS011;9379;52.134;11.576;2024-01-15T15:02:13;2.90;;;2.08;;
18499;SDS011;9379;52.134;11.576;2024-01-15T15:04:40;5.15;;;2.25;;
18499;SDS011;9379;52.134;11.576;2024-01-15T15:07:07;5.13;;;2.45;;
18499;SDS011;9379;52.134;11.576;2024-01-15T15:09:35;1.33;;;1.23;;
18499;SDS011;9379;52.134;11.576;2024-01-15T15:12:04;2.15;;;2.05;;
18499;SDS011;9379;52.134;11.576;2024-01-15T15:14:32;3.05;;;2.10;;
18499;SDS011;9379;52.134;11.576;2024-01-15T15:17:03;7.30;;;2.30;;
18499;SDS011;9379;52.134;11.576;2024-01-15T15:19:30;5.88;;;4.18;;
18499;SDS011;9379;52.134;11.576;2024-01-15T15:21:57;1.75;;;1.65;;